Terminal Aerodrome Forecast
Issued by NWS

Home | Current Version | Previous Version | Text Only | Print | Product List | Glossary On
Versions: 1 2 3 4 5 6 7 8 9 10 11 12 13 14 15 16
000
FTUS44 KJAN 301123
TAFGTR
TAF
KGTR 301123Z 3012/3112 16007KT P6SM VCSH FEW010 SCT020 BKN100
     FM301500 17010KT P6SM VCSH SCT020 BKN040 BKN150
     FM301800 18011KT 5SM -TSRA SCT025 BKN035CB OVC100
     FM302200 20007KT 6SM -SHRA VCTS SCT030 BKN050CB BKN150
     FM310400 18006KT P6SM VCSH SCT015 BKN030 BKN150=

USA.gov is the U.S. government's official web portal to all federal, state and local government web resources and services.